sensor_id;sensor_type;location;lat;lon;timestamp;P1;durP1;ratioP1;P2;durP2;ratioP2
18249;SDS011;27980;52.126;5.572;2023-07-13T00:02:17;9.02;;;1.83;;
18249;SDS011;27980;52.126;5.572;2023-07-13T00:04:45;4.68;;;1.35;;
18249;SDS011;27980;52.126;5.572;2023-07-13T00:07:11;8.45;;;2.13;;
18249;SDS011;27980;52.126;5.572;2023-07-13T00:09:39;4.35;;;1.60;;
18249;SDS011;27980;52.126;5.572;2023-07-13T00:12:21;1.58;;;1.20;;
18249;SDS011;27980;52.126;5.572;2023-07-13T00:14:48;4.40;;;1.98;;
18249;SDS011;27980;52.126;5.572;2023-07-13T00:17:16;7.13;;;1.30;;
18249;SDS011;27980;52.126;5.572;2023-07-13T00:19:44;4.63;;;1.58;;
18249;SDS011;27980;52.126;5.572;2023-07-13T00:22:11;5.05;;;1.52;;
18249;SDS011;27980;52.126;5.572;2023-07-13T00:24:39;6.05;;;2.08;;
18249;SDS011;27980;52.126;5.572;2023-07-13T00:27:07;3.40;;;1.73;;
18249;SDS011;27980;52.126;5.572;2023-07-13T00:29:33;3.55;;;1.38;;
18249;SDS011;27980;52.126;5.572;2023-07-13T00:32:00;5.25;;;1.70;;
18249;SDS011;27980;52.126;5.572;2023-07-13T00:34:26;6.30;;;1.65;;
18249;SDS011;27980;52.126;5.572;2023-07-13T00:36:54;9.55;;;2.13;;
18249;SDS011;27980;52.126;5.572;2023-07-13T00:39:22;4.55;;;1.95;;
18249;SDS011;27980;52.126;5.572;2023-07-13T00:41:49;4.82;;;2.03;;
18249;SDS011;27980;52.126;5.572;2023-07-13T00:44:16;4.43;;;1.48;;
18249;SDS011;27980;52.126;5.572;2023-07-13T00:46:43;4.43;;;1.48;;
18249;SDS011;27980;52.126;5.572;2023-07-13T00:49:13;2.63;;;1.48;;
18249;SDS011;27980;52.126;5.572;2023-07-13T00:51:43;6.55;;;1.92;;
18249;SDS011;27980;52.126;5.572;2023-07-13T00:54:13;5.25;;;1.85;;
18249;SDS011;27980;52.126;5.572;2023-07-13T00:56:41;2.67;;;1.40;;
18249;SDS011;27980;52.126;5.572;2023-07-13T00:59:10;4.22;;;1.60;;
18249;SDS011;27980;52.126;5.572;2023-07-13T01:01:37;2.53;;;1.95;;
18249;SDS011;27980;52.126;5.572;2023-07-13T01:04:04;4.80;;;1.65;;
18249;SDS011;27980;52.126;5.572;2023-07-13T01:06:33;4.78;;;1.52;;
18249;SDS011;27980;52.126;5.572;2023-07-13T01:09:00;5.05;;;1.77;;
18249;SDS011;27980;52.126;5.572;2023-07-13T01:11:29;9.95;;;1.77;;
18249;SDS011;27980;52.126;5.572;2023-07-13T01:13:55;2.72;;;1.42;;
18249;SDS011;27980;52.126;5.572;2023-07-13T01:16:23;3.72;;;1.27;;
18249;SDS011;27980;52.126;5.572;2023-07-13T01:18:50;4.85;;;1.52;;
18249;SDS011;27980;52.126;5.572;2023-07-13T01:21:18;2.25;;;1.67;;
18249;SDS011;27980;52.126;5.572;2023-07-13T01:23:45;2.75;;;1.42;;
18249;SDS011;27980;52.126;5.572;2023-07-13T01:26:11;2.63;;;1.70;;
18249;SDS011;27980;52.126;5.572;2023-07-13T01:28:38;2.03;;;1.30;;
18249;SDS011;27980;52.126;5.572;2023-07-13T01:31:04;1.67;;;1.30;;
18249;SDS011;27980;52.126;5.572;2023-07-13T01:33:31;5.88;;;2.03;;
18249;SDS011;27980;52.126;5.572;2023-07-13T01:35:59;2.63;;;1.20;;
18249;SDS011;27980;52.126;5.572;2023-07-13T01:38:28;5.53;;;1.50;;
18249;SDS011;27980;52.126;5.572;2023-07-13T01:40:55;4.05;;;1.75;;
18249;SDS011;27980;52.126;5.572;2023-07-13T01:43:21;3.88;;;1.48;;
18249;SDS011;27980;52.126;5.572;2023-07-13T01:45:48;3.05;;;1.48;;
18249;SDS011;27980;52.126;5.572;2023-07-13T01:48:16;3.38;;;1.23;;
18249;SDS011;27980;52.126;5.572;2023-07-13T01:50:44;3.50;;;1.60;;
18249;SDS011;27980;52.126;5.572;2023-07-13T01:53:10;2.58;;;1.70;;
18249;SDS011;27980;52.126;5.572;2023-07-13T01:55:38;6.93;;;1.67;;
18249;SDS011;27980;52.126;5.572;2023-07-13T01:58:05;3.05;;;1.55;;
18249;SDS011;27980;52.126;5.572;2023-07-13T02:00:32;6.07;;;1.60;;
18249;SDS011;27980;52.126;5.572;2023-07-13T02:02:58;5.18;;;1.48;;
18249;SDS011;27980;52.126;5.572;2023-07-13T02:05:25;4.88;;;1.35;;
18249;SDS011;27980;52.126;5.572;2023-07-13T02:07:51;3.17;;;1.65;;
18249;SDS011;27980;52.126;5.572;2023-07-13T02:10:19;6.55;;;1.40;;
18249;SDS011;27980;52.126;5.572;2023-07-13T02:12:47;6.25;;;1.90;;
18249;SDS011;27980;52.126;5.572;2023-07-13T02:15:14;5.95;;;1.63;;
18249;SDS011;27980;52.126;5.572;2023-07-13T02:17:40;3.05;;;1.38;;
18249;SDS011;27980;52.126;5.572;2023-07-13T02:20:07;7.13;;;1.75;;
18249;SDS011;27980;52.126;5.572;2023-07-13T02:22:35;3.90;;;1.48;;
18249;SDS011;27980;52.126;5.572;2023-07-13T02:25:02;6.20;;;1.52;;
18249;SDS011;27980;52.126;5.572;2023-07-13T02:27:28;4.13;;;1.58;;
18249;SDS011;27980;52.126;5.572;2023-07-13T02:29:56;5.50;;;1.80;;
18249;SDS011;27980;52.126;5.572;2023-07-13T02:32:23;3.65;;;1.77;;
18249;SDS011;27980;52.126;5.572;2023-07-13T02:34:51;4.70;;;2.10;;
18249;SDS011;27980;52.126;5.572;2023-07-13T02:37:18;4.15;;;1.52;;
18249;SDS011;27980;52.126;5.572;2023-07-13T02:39:45;3.70;;;1.75;;
18249;SDS011;27980;52.126;5.572;2023-07-13T02:42:13;3.22;;;1.35;;
18249;SDS011;27980;52.126;5.572;2023-07-13T02:44:39;3.08;;;1.63;;
18249;SDS011;27980;52.126;5.572;2023-07-13T02:47:07;3.80;;;1.67;;
18249;SDS011;27980;52.126;5.572;2023-07-13T02:49:34;4.88;;;1.75;;
18249;SDS011;27980;52.126;5.572;2023-07-13T02:52:00;8.95;;;2.45;;
18249;SDS011;27980;52.126;5.572;2023-07-13T02:54:27;2.70;;;1.70;;
18249;SDS011;27980;52.126;5.572;2023-07-13T02:56:54;5.00;;;1.52;;
18249;SDS011;27980;52.126;5.572;2023-07-13T02:59:22;4.20;;;2.42;;
18249;SDS011;27980;52.126;5.572;2023-07-13T03:01:48;3.42;;;1.88;;
18249;SDS011;27980;52.126;5.572;2023-07-13T03:04:17;5.28;;;2.03;;
18249;SDS011;27980;52.126;5.572;2023-07-13T03:06:46;6.45;;;1.88;;
18249;SDS011;27980;52.126;5.572;2023-07-13T03:09:12;6.18;;;2.05;;
18249;SDS011;27980;52.126;5.572;2023-07-13T03:11:39;4.05;;;1.90;;
18249;SDS011;27980;52.126;5.572;2023-07-13T03:14:07;8.23;;;1.95;;
18249;SDS011;27980;52.126;5.572;2023-07-13T03:16:34;8.55;;;2.38;;
18249;SDS011;27980;52.126;5.572;2023-07-13T03:19:00;7.85;;;2.00;;
18249;SDS011;27980;52.126;5.572;2023-07-13T03:21:28;5.40;;;1.98;;
18249;SDS011;27980;52.126;5.572;2023-07-13T03:23:56;4.97;;;2.17;;
18249;SDS011;27980;52.126;5.572;2023-07-13T03:26:23;4.93;;;2.17;;
18249;SDS011;27980;52.126;5.572;2023-07-13T03:28:50;6.13;;;1.83;;
18249;SDS011;27980;52.126;5.572;2023-07-13T03:31:17;6.88;;;2.58;;
18249;SDS011;27980;52.126;5.572;2023-07-13T03:33:44;4.63;;;2.42;;
18249;SDS011;27980;52.126;5.572;2023-07-13T03:36:12;7.82;;;2.22;;
18249;SDS011;27980;52.126;5.572;2023-07-13T03:38:40;6.78;;;2.28;;
18249;SDS011;27980;52.126;5.572;2023-07-13T03:41:06;6.72;;;2.20;;
18249;SDS011;27980;52.126;5.572;2023-07-13T03:43:33;7.93;;;2.50;;
18249;SDS011;27980;52.126;5.572;2023-07-13T03:46:01;4.15;;;1.90;;
18249;SDS011;27980;52.126;5.572;2023-07-13T03:48:28;5.25;;;2.47;;
18249;SDS011;27980;52.126;5.572;2023-07-13T03:50:55;6.30;;;2.47;;
18249;SDS011;27980;52.126;5.572;2023-07-13T03:53:21;7.50;;;2.30;;
18249;SDS011;27980;52.126;5.572;2023-07-13T03:55:50;8.27;;;2.65;;
18249;SDS011;27980;52.126;5.572;2023-07-13T03:58:25;7.28;;;2.60;;
18249;SDS011;27980;52.126;5.572;2023-07-13T04:00:52;4.53;;;2.25;;
18249;SDS011;27980;52.126;5.572;2023-07-13T04:03:18;6.45;;;2.35;;
18249;SDS011;27980;52.126;5.572;2023-07-13T04:05:45;6.93;;;2.88;;
18249;SDS011;27980;52.126;5.572;2023-07-13T04:08:12;12.93;;;2.65;;
18249;SDS011;27980;52.126;5.572;2023-07-13T04:10:39;5.90;;;2.45;;
18249;SDS011;27980;52.126;5.572;2023-07-13T04:13:10;9.73;;;2.67;;
18249;SDS011;27980;52.126;5.572;2023-07-13T04:15:38;5.88;;;2.45;;
18249;SDS011;27980;52.126;5.572;2023-07-13T04:18:05;6.47;;;2.30;;
18249;SDS011;27980;52.126;5.572;2023-07-13T04:20:31;4.63;;;2.38;;
18249;SDS011;27980;52.126;5.572;2023-07-13T04:22:57;10.05;;;2.83;;
18249;SDS011;27980;52.126;5.572;2023-07-13T04:25:24;6.22;;;2.05;;
18249;SDS011;27980;52.126;5.572;2023-07-13T04:27:50;4.32;;;2.40;;
18249;SDS011;27980;52.126;5.572;2023-07-13T04:30:19;7.03;;;2.45;;
18249;SDS011;27980;52.126;5.572;2023-07-13T04:32:45;4.75;;;2.50;;
18249;SDS011;27980;52.126;5.572;2023-07-13T04:35:12;9.30;;;2.25;;
18249;SDS011;27980;52.126;5.572;2023-07-13T04:37:39;3.25;;;2.30;;
18249;SDS011;27980;52.126;5.572;2023-07-13T04:40:06;9.55;;;2.80;;
18249;SDS011;27980;52.126;5.572;2023-07-13T04:42:37;11.57;;;2.70;;
18249;SDS011;27980;52.126;5.572;2023-07-13T04:45:04;9.05;;;2.78;;
18249;SDS011;27980;52.126;5.572;2023-07-13T04:47:32;9.23;;;2.67;;
18249;SDS011;27980;52.126;5.572;2023-07-13T04:49:58;7.38;;;2.80;;
18249;SDS011;27980;52.126;5.572;2023-07-13T04:52:25;10.63;;;2.33;;
18249;SDS011;27980;52.126;5.572;2023-07-13T04:54:51;3.97;;;2.17;;
18249;SDS011;27980;52.126;5.572;2023-07-13T04:57:18;9.27;;;2.50;;
18249;SDS011;27980;52.126;5.572;2023-07-13T04:59:45;5.15;;;2.85;;
18249;SDS011;27980;52.126;5.572;2023-07-13T05:02:11;8.85;;;2.97;;
18249;SDS011;27980;52.126;5.572;2023-07-13T05:04:39;6.65;;;2.60;;
18249;SDS011;27980;52.126;5.572;2023-07-13T05:07:06;8.40;;;3.00;;
18249;SDS011;27980;52.126;5.572;2023-07-13T05:09:33;5.90;;;2.88;;
18249;SDS011;27980;52.126;5.572;2023-07-13T05:11:59;9.43;;;2.55;;
18249;SDS011;27980;52.126;5.572;2023-07-13T05:14:26;9.23;;;2.33;;
18249;SDS011;27980;52.126;5.572;2023-07-13T05:16:53;7.43;;;2.97;;
18249;SDS011;27980;52.126;5.572;2023-07-13T05:19:22;5.80;;;2.92;;
18249;SDS011;27980;52.126;5.572;2023-07-13T05:21:51;7.75;;;2.50;;
18249;SDS011;27980;52.126;5.572;2023-07-13T05:24:17;9.95;;;2.97;;
18249;SDS011;27980;52.126;5.572;2023-07-13T05:26:44;11.18;;;3.25;;
18249;SDS011;27980;52.126;5.572;2023-07-13T05:29:11;8.40;;;2.65;;
18249;SDS011;27980;52.126;5.572;2023-07-13T05:31:37;7.22;;;2.97;;
18249;SDS011;27980;52.126;5.572;2023-07-13T05:34:04;9.82;;;3.17;;
18249;SDS011;27980;52.126;5.572;2023-07-13T05:36:30;9.55;;;2.90;;
18249;SDS011;27980;52.126;5.572;2023-07-13T05:39:01;7.35;;;3.28;;
18249;SDS011;27980;52.126;5.572;2023-07-13T05:41:28;8.05;;;3.60;;
18249;SDS011;27980;52.126;5.572;2023-07-13T05:43:55;6.82;;;3.28;;
18249;SDS011;27980;52.126;5.572;2023-07-13T05:46:21;16.55;;;3.95;;
18249;SDS011;27980;52.126;5.572;2023-07-13T05:48:48;11.07;;;3.83;;
18249;SDS011;27980;52.126;5.572;2023-07-13T05:51:17;8.60;;;4.13;;
18249;SDS011;27980;52.126;5.572;2023-07-13T05:53:43;6.10;;;3.40;;
18249;SDS011;27980;52.126;5.572;2023-07-13T05:56:11;12.57;;;4.22;;
18249;SDS011;27980;52.126;5.572;2023-07-13T05:58:38;11.50;;;3.92;;
18249;SDS011;27980;52.126;5.572;2023-07-13T06:01:08;11.65;;;4.03;;
18249;SDS011;27980;52.126;5.572;2023-07-13T06:03:37;10.52;;;4.03;;
18249;SDS011;27980;52.126;5.572;2023-07-13T06:06:04;16.80;;;4.80;;
18249;SDS011;27980;52.126;5.572;2023-07-13T06:08:31;13.75;;;4.25;;
18249;SDS011;27980;52.126;5.572;2023-07-13T06:11:03;12.07;;;4.90;;
18249;SDS011;27980;52.126;5.572;2023-07-13T06:13:31;9.32;;;4.75;;
18249;SDS011;27980;52.126;5.572;2023-07-13T06:15:58;12.68;;;5.57;;
18249;SDS011;27980;52.126;5.572;2023-07-13T06:18:25;9.00;;;5.13;;
18249;SDS011;27980;52.126;5.572;2023-07-13T06:20:52;10.68;;;4.88;;
18249;SDS011;27980;52.126;5.572;2023-07-13T06:23:18;9.30;;;5.05;;
18249;SDS011;27980;52.126;5.572;2023-07-13T06:25:46;8.73;;;4.28;;
18249;SDS011;27980;52.126;5.572;2023-07-13T06:28:12;12.15;;;5.05;;
18249;SDS011;27980;52.126;5.572;2023-07-13T06:30:40;12.30;;;5.43;;
18249;SDS011;27980;52.126;5.572;2023-07-13T06:33:07;11.00;;;5.40;;
18249;SDS011;27980;52.126;5.572;2023-07-13T06:35:34;15.52;;;5.85;;
18249;SDS011;27980;52.126;5.572;2023-07-13T06:38:01;17.35;;;6.45;;
18249;SDS011;27980;52.126;5.572;2023-07-13T06:40:27;11.23;;;5.72;;
18249;SDS011;27980;52.126;5.572;2023-07-13T06:42:55;9.93;;;5.57;;
18249;SDS011;27980;52.126;5.572;2023-07-13T06:45:22;13.30;;;6.22;;
18249;SDS011;27980;52.126;5.572;2023-07-13T06:47:51;17.30;;;6.05;;
18249;SDS011;27980;52.126;5.572;2023-07-13T06:50:17;8.73;;;5.60;;
18249;SDS011;27980;52.126;5.572;2023-07-13T06:52:44;23.05;;;7.20;;
18249;SDS011;27980;52.126;5.572;2023-07-13T06:55:10;16.25;;;6.00;;
18249;SDS011;27980;52.126;5.572;2023-07-13T06:57:39;13.57;;;6.75;;
18249;SDS011;27980;52.126;5.572;2023-07-13T07:00:06;14.05;;;6.60;;
18249;SDS011;27980;52.126;5.572;2023-07-13T07:02:35;12.98;;;6.50;;
18249;SDS011;27980;52.126;5.572;2023-07-13T07:05:03;14.57;;;6.45;;
18249;SDS011;27980;52.126;5.572;2023-07-13T07:07:30;10.73;;;6.47;;
18249;SDS011;27980;52.126;5.572;2023-07-13T07:09:56;12.35;;;5.90;;
18249;SDS011;27980;52.126;5.572;2023-07-13T07:12:22;10.75;;;6.07;;
18249;SDS011;27980;52.126;5.572;2023-07-13T07:14:49;20.15;;;7.13;;
18249;SDS011;27980;52.126;5.572;2023-07-13T07:17:17;9.63;;;5.63;;
18249;SDS011;27980;52.126;5.572;2023-07-13T07:19:47;14.80;;;5.78;;
18249;SDS011;27980;52.126;5.572;2023-07-13T07:22:15;11.02;;;5.95;;
18249;SDS011;27980;52.126;5.572;2023-07-13T07:24:41;10.85;;;6.50;;
18249;SDS011;27980;52.126;5.572;2023-07-13T07:27:08;11.98;;;6.40;;
18249;SDS011;27980;52.126;5.572;2023-07-13T07:29:36;10.23;;;6.20;;
18249;SDS011;27980;52.126;5.572;2023-07-13T07:32:02;11.10;;;6.43;;
18249;SDS011;27980;52.126;5.572;2023-07-13T07:34:29;11.18;;;7.25;;
18249;SDS011;27980;52.126;5.572;2023-07-13T07:36:58;10.82;;;6.45;;
18249;SDS011;27980;52.126;5.572;2023-07-13T07:39:29;12.77;;;6.82;;
18249;SDS011;27980;52.126;5.572;2023-07-13T07:41:56;13.73;;;7.25;;
18249;SDS011;27980;52.126;5.572;2023-07-13T07:44:22;14.13;;;5.97;;
18249;SDS011;27980;52.126;5.572;2023-07-13T07:46:49;12.63;;;5.97;;
18249;SDS011;27980;52.126;5.572;2023-07-13T07:49:15;10.82;;;5.90;;
18249;SDS011;27980;52.126;5.572;2023-07-13T07:51:42;12.85;;;6.43;;
18249;SDS011;27980;52.126;5.572;2023-07-13T07:54:08;10.00;;;6.40;;
18249;SDS011;27980;52.126;5.572;2023-07-13T07:56:36;9.70;;;7.22;;
18249;SDS011;27980;52.126;5.572;2023-07-13T07:59:03;15.05;;;6.82;;
18249;SDS011;27980;52.126;5.572;2023-07-13T08:01:29;12.68;;;7.00;;
18249;SDS011;27980;52.126;5.572;2023-07-13T08:03:56;11.82;;;6.88;;
18249;SDS011;27980;52.126;5.572;2023-07-13T08:06:22;11.13;;;6.13;;
18249;SDS011;27980;52.126;5.572;2023-07-13T08:08:49;10.50;;;6.28;;
18249;SDS011;27980;52.126;5.572;2023-07-13T08:11:16;14.13;;;7.18;;
18249;SDS011;27980;52.126;5.572;2023-07-13T08:13:44;6.25;;;5.65;;
18249;SDS011;27980;52.126;5.572;2023-07-13T08:16:10;7.20;;;5.20;;
18249;SDS011;27980;52.126;5.572;2023-07-13T08:18:37;7.22;;;5.25;;
18249;SDS011;27980;52.126;5.572;2023-07-13T08:21:07;9.35;;;4.72;;
18249;SDS011;27980;52.126;5.572;2023-07-13T08:23:33;9.35;;;4.50;;
18249;SDS011;27980;52.126;5.572;2023-07-13T08:26:01;7.22;;;3.65;;
18249;SDS011;27980;52.126;5.572;2023-07-13T08:28:28;8.07;;;3.65;;
18249;SDS011;27980;52.126;5.572;2023-07-13T08:30:58;4.53;;;3.30;;
18249;SDS011;27980;52.126;5.572;2023-07-13T08:33:26;7.85;;;3.58;;
18249;SDS011;27980;52.126;5.572;2023-07-13T08:35:52;10.15;;;4.32;;
18249;SDS011;27980;52.126;5.572;2023-07-13T08:38:19;8.35;;;3.63;;
18249;SDS011;27980;52.126;5.572;2023-07-13T08:40:53;8.38;;;3.08;;
18249;SDS011;27980;52.126;5.572;2023-07-13T08:43:23;5.30;;;2.97;;
18249;SDS011;27980;52.126;5.572;2023-07-13T08:45:52;5.97;;;3.50;;
18249;SDS011;27980;52.126;5.572;2023-07-13T08:48:25;5.00;;;2.83;;
18249;SDS011;27980;52.126;5.572;2023-07-13T08:50:56;7.53;;;3.42;;
18249;SDS011;27980;52.126;5.572;2023-07-13T08:53:24;5.43;;;3.25;;
18249;SDS011;27980;52.126;5.572;2023-07-13T08:55:57;6.93;;;3.15;;
18249;SDS011;27980;52.126;5.572;2023-07-13T08:58:26;3.28;;;2.50;;
18249;SDS011;27980;52.126;5.572;2023-07-13T09:00:56;5.10;;;1.98;;
18249;SDS011;27980;52.126;5.572;2023-07-13T09:03:27;3.78;;;1.70;;
18249;SDS011;27980;52.126;5.572;2023-07-13T09:05:57;3.70;;;1.38;;
18249;SDS011;27980;52.126;5.572;2023-07-13T09:08:31;2.75;;;1.05;;
18249;SDS011;27980;52.126;5.572;2023-07-13T09:11:00;3.22;;;1.42;;
18249;SDS011;27980;52.126;5.572;2023-07-13T09:13:30;2.00;;;0.95;;
18249;SDS011;27980;52.126;5.572;2023-07-13T09:15:59;4.13;;;1.50;;
18249;SDS011;27980;52.126;5.572;2023-07-13T09:18:28;5.45;;;1.77;;
18249;SDS011;27980;52.126;5.572;2023-07-13T09:20:56;3.00;;;1.15;;
18249;SDS011;27980;52.126;5.572;2023-07-13T09:23:24;2.58;;;1.55;;
18249;SDS011;27980;52.126;5.572;2023-07-13T09:25:54;3.92;;;1.58;;
18249;SDS011;27980;52.126;5.572;2023-07-13T09:28:26;4.82;;;1.90;;
18249;SDS011;27980;52.126;5.572;2023-07-13T09:30:55;4.45;;;2.05;;
18249;SDS011;27980;52.126;5.572;2023-07-13T09:33:22;5.70;;;2.42;;
18249;SDS011;27980;52.126;5.572;2023-07-13T09:35:51;3.45;;;2.08;;
18249;SDS011;27980;52.126;5.572;2023-07-13T09:38:18;3.78;;;2.30;;
18249;SDS011;27980;52.126;5.572;2023-07-13T09:40:55;3.22;;;1.60;;
18249;SDS011;27980;52.126;5.572;2023-07-13T09:43:24;4.53;;;1.85;;
18249;SDS011;27980;52.126;5.572;2023-07-13T09:45:53;4.10;;;1.50;;
18249;SDS011;27980;52.126;5.572;2023-07-13T09:48:20;3.08;;;2.13;;
18249;SDS011;27980;52.126;5.572;2023-07-13T09:50:47;3.10;;;1.70;;
18249;SDS011;27980;52.126;5.572;2023-07-13T09:53:18;4.05;;;2.03;;
18249;SDS011;27980;52.126;5.572;2023-07-13T09:55:45;2.38;;;1.55;;
18249;SDS011;27980;52.126;5.572;2023-07-13T09:58:13;4.43;;;1.90;;
18249;SDS011;27980;52.126;5.572;2023-07-13T10:00:42;4.00;;;1.48;;
18249;SDS011;27980;52.126;5.572;2023-07-13T10:03:16;3.42;;;1.45;;
18249;SDS011;27980;52.126;5.572;2023-07-13T10:05:43;2.95;;;1.42;;
18249;SDS011;27980;52.126;5.572;2023-07-13T10:08:21;4.97;;;1.63;;
18249;SDS011;27980;52.126;5.572;2023-07-13T10:10:51;3.13;;;1.70;;
18249;SDS011;27980;52.126;5.572;2023-07-13T10:16:02;1.83;;;0.98;;
18249;SDS011;27980;52.126;5.572;2023-07-13T10:18:31;1.60;;;1.10;;
18249;SDS011;27980;52.126;5.572;2023-07-13T10:21:07;1.55;;;1.20;;
18249;SDS011;27980;52.126;5.572;2023-07-13T10:23:37;1.80;;;1.50;;
18249;SDS011;27980;52.126;5.572;2023-07-13T10:26:04;2.25;;;1.55;;
18249;SDS011;27980;52.126;5.572;2023-07-13T10:28:33;1.80;;;1.58;;
18249;SDS011;27980;52.126;5.572;2023-07-13T10:31:01;5.68;;;2.53;;
18249;SDS011;27980;52.126;5.572;2023-07-13T10:33:32;4.70;;;1.88;;
18249;SDS011;27980;52.126;5.572;2023-07-13T10:36:01;3.15;;;1.88;;
18249;SDS011;27980;52.126;5.572;2023-07-13T10:38:31;2.85;;;1.42;;
18249;SDS011;27980;52.126;5.572;2023-07-13T10:41:00;2.05;;;1.83;;
18249;SDS011;27980;52.126;5.572;2023-07-13T10:43:29;2.78;;;1.60;;
18249;SDS011;27980;52.126;5.572;2023-07-13T10:46:02;3.28;;;1.60;;
18249;SDS011;27980;52.126;5.572;2023-07-13T10:48:32;1.92;;;1.65;;
18249;SDS011;27980;52.126;5.572;2023-07-13T10:50:59;2.50;;;1.33;;
18249;SDS011;27980;52.126;5.572;2023-07-13T10:53:28;2.70;;;1.30;;
18249;SDS011;27980;52.126;5.572;2023-07-13T10:55:56;2.75;;;1.73;;
18249;SDS011;27980;52.126;5.572;2023-07-13T10:58:31;2.53;;;1.35;;
18249;SDS011;27980;52.126;5.572;2023-07-13T11:01:02;2.33;;;1.30;;
18249;SDS011;27980;52.126;5.572;2023-07-13T11:03:29;3.05;;;1.73;;
18249;SDS011;27980;52.126;5.572;2023-07-13T11:06:04;3.33;;;1.52;;
18249;SDS011;27980;52.126;5.572;2023-07-13T11:08:35;3.38;;;1.50;;
18249;SDS011;27980;52.126;5.572;2023-07-13T11:11:04;1.50;;;1.15;;
18249;SDS011;27980;52.126;5.572;2023-07-13T11:13:58;1.20;;;1.10;;
18249;SDS011;27980;52.126;5.572;2023-07-13T11:16:35;3.55;;;1.20;;
18249;SDS011;27980;52.126;5.572;2023-07-13T11:22:10;4.05;;;1.80;;
18249;SDS011;27980;52.126;5.572;2023-07-13T11:24:50;3.22;;;1.25;;
18249;SDS011;27980;52.126;5.572;2023-07-13T11:27:30;2.90;;;1.20;;
18249;SDS011;27980;52.126;5.572;2023-07-13T11:32:43;2.40;;;1.30;;
18249;SDS011;27980;52.126;5.572;2023-07-13T11:35:12;2.65;;;1.00;;
18249;SDS011;27980;52.126;5.572;2023-07-13T11:37:39;1.35;;;1.00;;
18249;SDS011;27980;52.126;5.572;2023-07-13T11:40:11;2.65;;;1.75;;
18249;SDS011;27980;52.126;5.572;2023-07-13T11:42:38;1.52;;;1.25;;
18249;SDS011;27980;52.126;5.572;2023-07-13T11:45:12;4.15;;;1.48;;
18249;SDS011;27980;52.126;5.572;2023-07-13T11:47:45;2.65;;;1.30;;
18249;SDS011;27980;52.126;5.572;2023-07-13T11:50:17;2.60;;;1.40;;
18249;SDS011;27980;52.126;5.572;2023-07-13T11:52:44;4.18;;;2.10;;
18249;SDS011;27980;52.126;5.572;2023-07-13T11:55:13;3.88;;;1.88;;
18249;SDS011;27980;52.126;5.572;2023-07-13T11:57:41;3.25;;;1.52;;
18249;SDS011;27980;52.126;5.572;2023-07-13T12:00:12;2.75;;;1.60;;
18249;SDS011;27980;52.126;5.572;2023-07-13T12:02:40;2.03;;;1.40;;
18249;SDS011;27980;52.126;5.572;2023-07-13T12:05:11;2.47;;;2.05;;
18249;SDS011;27980;52.126;5.572;2023-07-13T12:07:38;2.55;;;1.70;;
18249;SDS011;27980;52.126;5.572;2023-07-13T12:10:13;6.68;;;1.83;;
18249;SDS011;27980;52.126;5.572;2023-07-13T12:12:46;2.47;;;2.28;;
18249;SDS011;27980;52.126;5.572;2023-07-13T12:15:13;3.53;;;2.20;;
18249;SDS011;27980;52.126;5.572;2023-07-13T12:17:40;5.38;;;2.85;;
18249;SDS011;27980;52.126;5.572;2023-07-13T12:20:17;4.00;;;2.72;;
18249;SDS011;27980;52.126;5.572;2023-07-13T12:22:45;3.75;;;2.90;;
18249;SDS011;27980;52.126;5.572;2023-07-13T12:25:12;5.20;;;3.03;;
18249;SDS011;27980;52.126;5.572;2023-07-13T12:27:40;5.13;;;3.10;;
18249;SDS011;27980;52.126;5.572;2023-07-13T12:30:21;4.75;;;2.83;;
18249;SDS011;27980;52.126;5.572;2023-07-13T12:32:55;4.43;;;2.45;;
18249;SDS011;27980;52.126;5.572;2023-07-13T12:35:26;3.80;;;2.90;;
18249;SDS011;27980;52.126;5.572;2023-07-13T12:37:54;3.25;;;1.90;;
18249;SDS011;27980;52.126;5.572;2023-07-13T12:40:26;3.70;;;1.92;;
18249;SDS011;27980;52.126;5.572;2023-07-13T12:42:53;2.72;;;2.00;;
18249;SDS011;27980;52.126;5.572;2023-07-13T12:45:21;5.03;;;1.80;;
18249;SDS011;27980;52.126;5.572;2023-07-13T12:47:49;4.25;;;2.08;;
18249;SDS011;27980;52.126;5.572;2023-07-13T12:50:17;4.57;;;2.20;;
18249;SDS011;27980;52.126;5.572;2023-07-13T12:52:49;2.53;;;2.15;;
18249;SDS011;27980;52.126;5.572;2023-07-13T12:55:17;3.95;;;2.00;;
18249;SDS011;27980;52.126;5.572;2023-07-13T12:57:47;8.00;;;2.28;;
18249;SDS011;27980;52.126;5.572;2023-07-13T13:00:20;3.92;;;1.80;;
18249;SDS011;27980;52.126;5.572;2023-07-13T13:02:49;2.17;;;1.80;;
18249;SDS011;27980;52.126;5.572;2023-07-13T13:05:17;2.42;;;1.50;;
18249;SDS011;27980;52.126;5.572;2023-07-13T13:07:45;3.55;;;1.65;;
18249;SDS011;27980;52.126;5.572;2023-07-13T13:10:12;6.60;;;1.70;;
18249;SDS011;27980;52.126;5.572;2023-07-13T13:12:40;2.33;;;1.70;;
18249;SDS011;27980;52.126;5.572;2023-07-13T13:15:08;1.67;;;1.40;;
18249;SDS011;27980;52.126;5.572;2023-07-13T13:17:35;3.38;;;1.77;;
18249;SDS011;27980;52.126;5.572;2023-07-13T13:20:01;3.30;;;1.52;;
18249;SDS011;27980;52.126;5.572;2023-07-13T13:22:28;1.88;;;1.45;;
18249;SDS011;27980;52.126;5.572;2023-07-13T13:24:57;1.85;;;1.50;;
18249;SDS011;27980;52.126;5.572;2023-07-13T13:27:24;5.18;;;1.92;;
18249;SDS011;27980;52.126;5.572;2023-07-13T13:29:53;4.70;;;1.95;;
18249;SDS011;27980;52.126;5.572;2023-07-13T13:32:20;4.00;;;2.00;;
18249;SDS011;27980;52.126;5.572;2023-07-13T13:34:47;4.93;;;1.88;;
18249;SDS011;27980;52.126;5.572;2023-07-13T13:37:18;3.05;;;1.83;;
18249;SDS011;27980;52.126;5.572;2023-07-13T13:39:46;2.83;;;1.75;;
18249;SDS011;27980;52.126;5.572;2023-07-13T13:42:14;1.92;;;1.40;;
18249;SDS011;27980;52.126;5.572;2023-07-13T13:44:41;4.50;;;1.80;;
18249;SDS011;27980;52.126;5.572;2023-07-13T13:47:16;3.30;;;1.73;;
18249;SDS011;27980;52.126;5.572;2023-07-13T13:49:46;2.30;;;1.58;;
18249;SDS011;27980;52.126;5.572;2023-07-13T13:52:13;2.30;;;1.73;;
18249;SDS011;27980;52.126;5.572;2023-07-13T13:54:40;2.28;;;1.48;;
18249;SDS011;27980;52.126;5.572;2023-07-13T13:57:08;3.17;;;1.90;;
18249;SDS011;27980;52.126;5.572;2023-07-13T13:59:36;2.67;;;1.42;;
18249;SDS011;27980;52.126;5.572;2023-07-13T14:02:07;2.53;;;1.80;;
18249;SDS011;27980;52.126;5.572;2023-07-13T14:04:37;2.47;;;1.80;;
18249;SDS011;27980;52.126;5.572;2023-07-13T14:07:04;1.88;;;1.50;;
18249;SDS011;27980;52.126;5.572;2023-07-13T14:09:30;2.30;;;1.70;;
18249;SDS011;27980;52.126;5.572;2023-07-13T14:11:59;2.65;;;1.60;;
18249;SDS011;27980;52.126;5.572;2023-07-13T14:14:25;3.38;;;1.52;;
18249;SDS011;27980;52.126;5.572;2023-07-13T14:16:56;1.50;;;1.40;;
18249;SDS011;27980;52.126;5.572;2023-07-13T14:19:23;4.28;;;1.90;;
18249;SDS011;27980;52.126;5.572;2023-07-13T14:21:50;4.47;;;2.10;;
18249;SDS011;27980;52.126;5.572;2023-07-13T14:24:18;2.15;;;1.80;;
18249;SDS011;27980;52.126;5.572;2023-07-13T14:26:45;2.50;;;1.92;;
18249;SDS011;27980;52.126;5.572;2023-07-13T14:29:13;2.22;;;1.80;;
18249;SDS011;27980;52.126;5.572;2023-07-13T14:31:40;3.80;;;1.63;;
18249;SDS011;27980;52.126;5.572;2023-07-13T14:34:08;2.58;;;1.80;;
18249;SDS011;27980;52.126;5.572;2023-07-13T14:36:36;2.72;;;1.77;;
18249;SDS011;27980;52.126;5.572;2023-07-13T14:39:11;2.45;;;1.45;;
18249;SDS011;27980;52.126;5.572;2023-07-13T14:41:37;2.70;;;1.60;;
18249;SDS011;27980;52.126;5.572;2023-07-13T14:44:07;2.25;;;1.92;;
18249;SDS011;27980;52.126;5.572;2023-07-13T14:46:34;2.78;;;1.63;;
18249;SDS011;27980;52.126;5.572;2023-07-13T14:49:02;6.57;;;1.70;;
18249;SDS011;27980;52.126;5.572;2023-07-13T14:51:31;6.22;;;1.95;;
18249;SDS011;27980;52.126;5.572;2023-07-13T14:54:00;3.45;;;1.33;;
18249;SDS011;27980;52.126;5.572;2023-07-13T14:56:27;3.05;;;1.80;;
18249;SDS011;27980;52.126;5.572;2023-07-13T14:58:53;3.42;;;1.83;;
18249;SDS011;27980;52.126;5.572;2023-07-13T15:01:20;3.45;;;1.55;;